Time,TemperatureF,DewpointF,PressureIn,WindDirection,WindDirectionDegrees,WindSpeedMPH,WindSpeedGustMPH,Humidity,HourlyPrecipIn,Conditions,Clouds,dailyrainin,SoftwareType,DateUTC
2013-03-01 00:00:00,46.0,-99.9,30.20,East,80,18.0,22.0,-999,-99.99,,,-99.99,,2013-03-01 08:00:00,
2013-03-01 00:53:00,46.0,-99.9,30.20,East,80,18.0,22.0,-999,-99.99,,,-99.99,,2013-03-01 08:53:00,
2013-03-01 01:00:00,46.0,-99.9,30.20,East,90,20.0,25.0,-999,-99.99,,,-99.99,,2013-03-01 09:00:00,
2013-03-01 01:53:00,46.0,-99.9,30.20,East,90,20.0,25.0,-999,-99.99,,,-99.99,,2013-03-01 09:53:00,
2013-03-01 02:00:00,47.0,-99.9,30.20,East,90,18.0,22.0,-999,-99.99,,,-99.99,,2013-03-01 10:00:00,
2013-03-01 02:53:00,47.0,-99.9,30.20,East,90,18.0,22.0,-999,-99.99,,,-99.99,,2013-03-01 10:53:00,
2013-03-01 03:00:00,46.0,-99.9,30.20,East,80,16.0,20.0,-999,-99.99,,,-99.99,,2013-03-01 11:00:00,
2013-03-01 03:53:00,46.0,-99.9,30.20,East,80,16.0,20.0,-999,-99.99,,,-99.99,,2013-03-01 11:53:00,
2013-03-01 04:00:00,47.0,-99.9,30.19,East,100,16.0,20.0,-999,-99.99,,,-99.99,,2013-03-01 12:00:00,
2013-03-01 04:52:00,47.0,-99.9,30.19,East,100,16.0,20.0,-999,-99.99,,,-99.99,,2013-03-01 12:52:00,
2013-03-01 05:00:00,47.0,-99.9,30.19,East,80,16.0,18.0,-999,-99.99,,,-99.99,,2013-03-01 13:00:00,
2013-03-01 05:52:00,47.0,-99.9,30.19,East,80,16.0,18.0,-999,-99.99,,,-99.99,,2013-03-01 13:52:00,
2013-03-01 06:00:00,47.0,-99.9,30.17,East,100,18.0,20.0,-999,-99.99,,,-99.99,,2013-03-01 14:00:00,
2013-03-01 06:52:00,47.0,-99.9,30.17,East,100,18.0,20.0,-999,-99.99,,,-99.99,,2013-03-01 14:52:00,
2013-03-01 07:00:00,47.0,-99.9,30.18,East,80,18.0,22.0,-999,-99.99,,,-99.99,,2013-03-01 15:00:00,
2013-03-01 07:52:00,47.0,-99.9,30.18,East,80,18.0,22.0,-999,-99.99,,,-99.99,,2013-03-01 15:52:00,
2013-03-01 08:00:00,47.0,-99.9,30.18,East,80,20.0,22.0,-999,-99.99,,,-99.99,,2013-03-01 16:00:00,
2013-03-01 08:52:00,47.0,-99.9,30.18,East,80,20.0,22.0,-999,-99.99,,,-99.99,,2013-03-01 16:52:00,
2013-03-01 09:00:00,47.0,-99.9,30.20,East,80,16.0,20.0,-999,-99.99,,,-99.99,,2013-03-01 17:00:00,
2013-03-01 09:52:00,47.0,-99.9,30.20,East,80,16.0,20.0,-999,-99.99,,,-99.99,,2013-03-01 17:52:00,
2013-03-01 10:00:00,48.0,-99.9,30.20,East,100,20.0,25.0,-999,-99.99,,,-99.99,,2013-03-01 18:00:00,
2013-03-01 10:52:00,48.0,-99.9,30.20,East,100,20.0,25.0,-999,-99.99,,,-99.99,,2013-03-01 18:52:00,
2013-03-01 11:00:00,48.0,-99.9,30.21,East,90,18.0,22.0,-999,-99.99,,,-99.99,,2013-03-01 19:00:00,
2013-03-01 11:52:00,48.0,-99.9,30.21,East,90,18.0,22.0,-999,-99.99,,,-99.99,,2013-03-01 19:52:00,
2013-03-01 12:00:00,47.0,-99.9,30.22,East,90,16.0,20.0,-999,-99.99,,,-99.99,,2013-03-01 20:00:00,
2013-03-01 12:52:00,47.0,-99.9,30.22,East,90,16.0,20.0,-999,-99.99,,,-99.99,,2013-03-01 20:52:00,
2013-03-01 13:00:00,47.0,-99.9,30.22,East,100,18.0,20.0,-999,-99.99,,,-99.99,,2013-03-01 21:00:00,
2013-03-01 13:52:00,47.0,-99.9,30.22,East,100,18.0,20.0,-999,-99.99,,,-99.99,,2013-03-01 21:52:00,
2013-03-01 14:00:00,48.0,-99.9,30.22,ESE,110,16.0,18.0,-999,-99.99,,,-99.99,,2013-03-01 22:00:00,
2013-03-01 14:52:00,48.0,-99.9,30.22,ESE,110,16.0,18.0,-999,-99.99,,,-99.99,,2013-03-01 22:52:00,
2013-03-01 15:00:00,48.0,-99.9,30.22,East,80,13.0,16.0,-999,-99.99,,,-99.99,,2013-03-01 23:00:00,
2013-03-01 15:52:00,48.0,-99.9,30.22,East,80,13.0,16.0,-999,-99.99,,,-99.99,,2013-03-01 23:52:00,
2013-03-01 16:00:00,47.0,-99.9,30.22,East,80,11.0,18.0,-999,-99.99,,,-99.99,,2013-03-02 00:00:00,
2013-03-01 16:52:00,47.0,-99.9,30.22,East,80,11.0,18.0,-999,-99.99,,,-99.99,,2013-03-02 00:52:00,
2013-03-01 17:00:00,47.0,-99.9,30.22,East,100,13.0,16.0,-999,-99.99,,,-99.99,,2013-03-02 01:00:00,
2013-03-01 17:52:00,47.0,-99.9,30.22,East,100,13.0,16.0,-999,-99.99,,,-99.99,,2013-03-02 01:52:00,
2013-03-01 18:00:00,47.0,-99.9,30.21,East,90,13.0,16.0,-999,-99.99,,,-99.99,,2013-03-02 02:00:00,
2013-03-01 18:52:00,47.0,-99.9,30.21,East,90,13.0,16.0,-999,-99.99,,,-99.99,,2013-03-02 02:52:00,
2013-03-01 19:00:00,47.0,-99.9,30.22,ESE,110,13.0,18.0,-999,-99.99,,,-99.99,,2013-03-02 03:00:00,
2013-03-01 19:53:00,47.0,-99.9,30.22,ESE,110,13.0,18.0,-999,-99.99,,,-99.99,,2013-03-02 03:53:00,
2013-03-01 20:00:00,46.0,-99.9,30.22,East,100,11.0,11.0,-999,-99.99,,,-99.99,,2013-03-02 04:00:00,
2013-03-01 20:52:00,46.0,-99.9,30.22,East,100,11.0,11.0,-999,-99.99,,,-99.99,,2013-03-02 04:52:00,
2013-03-01 21:00:00,47.0,-99.9,30.22,East,100,11.0,13.0,-999,-99.99,,,-99.99,,2013-03-02 05:00:00,
2013-03-01 21:52:00,47.0,-99.9,30.22,East,100,11.0,13.0,-999,-99.99,,,-99.99,,2013-03-02 05:52:00,
2013-03-01 22:00:00,47.0,-99.9,30.22,East,100,11.0,13.0,-999,-99.99,,,-99.99,,2013-03-02 06:00:00,
2013-03-01 22:52:00,47.0,-99.9,30.22,East,100,11.0,13.0,-999,-99.99,,,-99.99,,2013-03-02 06:52:00,
2013-03-01 23:00:00,47.0,-99.9,30.20,East,90,11.0,13.0,-999,-99.99,,,-99.99,,2013-03-02 07:00:00,
2013-03-01 23:52:00,47.0,-99.9,30.20,East,90,11.0,13.0,-999,-99.99,,,-99.99,,2013-03-02 07:52:00,